sensor_id;sensor_type;location;lat;lon;timestamp;P1;durP1;ratioP1;P2;durP2;ratioP2
75698;SDS011;64313;51.018;13.742;2023-12-04T00:01:18;11.55;;;5.00;;
75698;SDS011;64313;51.018;13.742;2023-12-04T00:03:44;11.98;;;4.88;;
75698;SDS011;64313;51.018;13.742;2023-12-04T00:06:10;10.50;;;4.88;;
75698;SDS011;64313;51.018;13.742;2023-12-04T00:08:36;11.38;;;4.63;;
75698;SDS011;64313;51.018;13.742;2023-12-04T00:11:02;11.75;;;5.00;;
75698;SDS011;64313;51.018;13.742;2023-12-04T00:13:28;11.02;;;4.63;;
75698;SDS011;64313;51.018;13.742;2023-12-04T00:15:54;11.43;;;4.57;;
75698;SDS011;64313;51.018;13.742;2023-12-04T00:18:19;12.90;;;4.97;;
75698;SDS011;64313;51.018;13.742;2023-12-04T00:20:44;11.68;;;4.90;;
75698;SDS011;64313;51.018;13.742;2023-12-04T00:23:09;13.75;;;5.18;;
75698;SDS011;64313;51.018;13.742;2023-12-04T00:25:35;10.90;;;4.75;;
75698;SDS011;64313;51.018;13.742;2023-12-04T00:28:00;11.60;;;4.82;;
75698;SDS011;64313;51.018;13.742;2023-12-04T00:30:25;10.38;;;4.78;;
75698;SDS011;64313;51.018;13.742;2023-12-04T00:32:51;10.77;;;4.82;;
75698;SDS011;64313;51.018;13.742;2023-12-04T00:35:16;11.57;;;5.40;;
75698;SDS011;64313;51.018;13.742;2023-12-04T00:37:41;11.80;;;5.20;;
75698;SDS011;64313;51.018;13.742;2023-12-04T00:40:07;13.35;;;5.60;;
75698;SDS011;64313;51.018;13.742;2023-12-04T00:42:32;11.40;;;4.80;;
75698;SDS011;64313;51.018;13.742;2023-12-04T00:44:58;12.20;;;5.65;;
75698;SDS011;64313;51.018;13.742;2023-12-04T00:47:23;10.23;;;4.63;;
75698;SDS011;64313;51.018;13.742;2023-12-04T00:49:49;12.05;;;5.60;;
75698;SDS011;64313;51.018;13.742;2023-12-04T00:52:14;14.52;;;6.38;;
75698;SDS011;64313;51.018;13.742;2023-12-04T00:54:39;13.18;;;6.05;;
75698;SDS011;64313;51.018;13.742;2023-12-04T00:57:06;13.32;;;6.03;;
75698;SDS011;64313;51.018;13.742;2023-12-04T00:59:31;13.75;;;5.50;;
75698;SDS011;64313;51.018;13.742;2023-12-04T01:01:56;13.80;;;6.03;;
75698;SDS011;64313;51.018;13.742;2023-12-04T01:04:22;12.40;;;5.32;;
75698;SDS011;64313;51.018;13.742;2023-12-04T01:06:47;14.63;;;5.80;;
75698;SDS011;64313;51.018;13.742;2023-12-04T01:09:12;12.23;;;5.63;;
75698;SDS011;64313;51.018;13.742;2023-12-04T01:11:38;12.05;;;5.40;;
75698;SDS011;64313;51.018;13.742;2023-12-04T01:14:04;14.20;;;5.40;;
75698;SDS011;64313;51.018;13.742;2023-12-04T01:16:29;10.95;;;5.28;;
75698;SDS011;64313;51.018;13.742;2023-12-04T01:18:54;12.68;;;5.30;;
75698;SDS011;64313;51.018;13.742;2023-12-04T01:21:20;13.48;;;5.50;;
75698;SDS011;64313;51.018;13.742;2023-12-04T01:23:45;10.85;;;4.88;;
75698;SDS011;64313;51.018;13.742;2023-12-04T01:26:10;12.90;;;5.95;;
75698;SDS011;64313;51.018;13.742;2023-12-04T01:28:36;12.52;;;6.03;;
75698;SDS011;64313;51.018;13.742;2023-12-04T01:31:02;12.57;;;5.55;;
75698;SDS011;64313;51.018;13.742;2023-12-04T01:33:28;12.77;;;5.15;;
75698;SDS011;64313;51.018;13.742;2023-12-04T01:35:53;11.20;;;4.80;;
75698;SDS011;64313;51.018;13.742;2023-12-04T01:38:19;11.25;;;5.35;;
75698;SDS011;64313;51.018;13.742;2023-12-04T01:40:44;11.68;;;4.95;;
75698;SDS011;64313;51.018;13.742;2023-12-04T01:43:09;10.77;;;5.30;;
75698;SDS011;64313;51.018;13.742;2023-12-04T01:45:35;10.88;;;5.03;;
75698;SDS011;64313;51.018;13.742;2023-12-04T01:48:00;11.50;;;4.85;;
75698;SDS011;64313;51.018;13.742;2023-12-04T01:50:27;11.65;;;4.53;;
75698;SDS011;64313;51.018;13.742;2023-12-04T01:52:52;10.50;;;4.45;;
75698;SDS011;64313;51.018;13.742;2023-12-04T01:55:18;9.98;;;4.32;;
75698;SDS011;64313;51.018;13.742;2023-12-04T01:57:44;11.20;;;4.82;;
75698;SDS011;64313;51.018;13.742;2023-12-04T02:02:40;9.07;;;4.13;;
75698;SDS011;64313;51.018;13.742;2023-12-04T02:05:10;10.55;;;4.70;;
75698;SDS011;64313;51.018;13.742;2023-12-04T02:07:36;10.18;;;4.50;;
75698;SDS011;64313;51.018;13.742;2023-12-04T02:10:02;10.55;;;4.57;;
75698;SDS011;64313;51.018;13.742;2023-12-04T02:12:28;9.25;;;3.95;;
75698;SDS011;64313;51.018;13.742;2023-12-04T02:14:53;9.48;;;3.85;;
75698;SDS011;64313;51.018;13.742;2023-12-04T02:17:19;10.10;;;4.22;;
75698;SDS011;64313;51.018;13.742;2023-12-04T02:19:45;10.80;;;4.45;;
75698;SDS011;64313;51.018;13.742;2023-12-04T02:22:11;9.70;;;3.97;;
75698;SDS011;64313;51.018;13.742;2023-12-04T02:24:36;9.57;;;3.70;;
75698;SDS011;64313;51.018;13.742;2023-12-04T02:27:04;9.02;;;3.53;;
75698;SDS011;64313;51.018;13.742;2023-12-04T02:29:53;8.32;;;3.47;;
75698;SDS011;64313;51.018;13.742;2023-12-04T02:32:28;8.43;;;4.00;;
75698;SDS011;64313;51.018;13.742;2023-12-04T02:34:56;7.78;;;3.25;;
75698;SDS011;64313;51.018;13.742;2023-12-04T02:37:24;9.85;;;3.35;;
75698;SDS011;64313;51.018;13.742;2023-12-04T02:39:51;9.50;;;3.15;;
75698;SDS011;64313;51.018;13.742;2023-12-04T02:42:20;8.75;;;3.38;;
75698;SDS011;64313;51.018;13.742;2023-12-04T02:44:45;7.65;;;3.20;;
75698;SDS011;64313;51.018;13.742;2023-12-04T02:47:11;9.05;;;3.63;;
75698;SDS011;64313;51.018;13.742;2023-12-04T02:49:36;13.05;;;4.30;;
75698;SDS011;64313;51.018;13.742;2023-12-04T02:52:02;7.90;;;3.40;;
75698;SDS011;64313;51.018;13.742;2023-12-04T02:54:28;10.02;;;4.40;;
75698;SDS011;64313;51.018;13.742;2023-12-04T02:56:53;8.43;;;3.92;;
75698;SDS011;64313;51.018;13.742;2023-12-04T02:59:18;10.88;;;4.43;;
75698;SDS011;64313;51.018;13.742;2023-12-04T03:01:44;9.52;;;4.18;;
75698;SDS011;64313;51.018;13.742;2023-12-04T03:04:09;8.90;;;4.07;;
75698;SDS011;64313;51.018;13.742;2023-12-04T03:06:35;9.60;;;4.18;;
75698;SDS011;64313;51.018;13.742;2023-12-04T03:09:00;10.18;;;4.05;;
75698;SDS011;64313;51.018;13.742;2023-12-04T03:11:25;11.45;;;4.97;;
75698;SDS011;64313;51.018;13.742;2023-12-04T03:13:51;10.60;;;4.70;;
75698;SDS011;64313;51.018;13.742;2023-12-04T03:16:16;10.65;;;4.82;;
75698;SDS011;64313;51.018;13.742;2023-12-04T03:21:07;11.38;;;4.75;;
75698;SDS011;64313;51.018;13.742;2023-12-04T03:23:33;12.32;;;4.72;;
75698;SDS011;64313;51.018;13.742;2023-12-04T03:25:58;10.98;;;4.57;;
75698;SDS011;64313;51.018;13.742;2023-12-04T03:28:23;12.82;;;5.40;;
75698;SDS011;64313;51.018;13.742;2023-12-04T03:30:49;13.38;;;5.97;;
75698;SDS011;64313;51.018;13.742;2023-12-04T03:33:14;12.80;;;4.93;;
75698;SDS011;64313;51.018;13.742;2023-12-04T03:35:39;15.02;;;6.43;;
75698;SDS011;64313;51.018;13.742;2023-12-04T03:38:05;14.77;;;6.70;;
75698;SDS011;64313;51.018;13.742;2023-12-04T03:40:31;16.10;;;6.88;;
75698;SDS011;64313;51.018;13.742;2023-12-04T03:42:56;16.00;;;6.65;;
75698;SDS011;64313;51.018;13.742;2023-12-04T03:45:21;16.63;;;6.75;;
75698;SDS011;64313;51.018;13.742;2023-12-04T03:47:47;16.65;;;6.47;;
75698;SDS011;64313;51.018;13.742;2023-12-04T03:50:12;17.02;;;7.15;;
75698;SDS011;64313;51.018;13.742;2023-12-04T03:52:37;13.70;;;6.38;;
75698;SDS011;64313;51.018;13.742;2023-12-04T03:55:03;17.65;;;7.00;;
75698;SDS011;64313;51.018;13.742;2023-12-04T03:57:28;16.63;;;6.85;;
75698;SDS011;64313;51.018;13.742;2023-12-04T03:59:54;16.45;;;7.18;;
75698;SDS011;64313;51.018;13.742;2023-12-04T04:02:19;15.65;;;6.93;;
75698;SDS011;64313;51.018;13.742;2023-12-04T04:04:44;12.80;;;6.60;;
75698;SDS011;64313;51.018;13.742;2023-12-04T04:07:10;14.82;;;6.50;;
75698;SDS011;64313;51.018;13.742;2023-12-04T04:09:35;15.95;;;6.63;;
75698;SDS011;64313;51.018;13.742;2023-12-04T04:12:00;15.90;;;6.85;;
75698;SDS011;64313;51.018;13.742;2023-12-04T04:14:26;20.60;;;7.95;;
75698;SDS011;64313;51.018;13.742;2023-12-04T04:16:51;17.63;;;7.45;;
75698;SDS011;64313;51.018;13.742;2023-12-04T04:19:16;17.60;;;7.22;;
75698;SDS011;64313;51.018;13.742;2023-12-04T04:21:41;16.08;;;7.28;;
75698;SDS011;64313;51.018;13.742;2023-12-04T04:24:07;19.17;;;7.28;;
75698;SDS011;64313;51.018;13.742;2023-12-04T04:26:32;17.75;;;7.47;;
75698;SDS011;64313;51.018;13.742;2023-12-04T04:28:58;17.45;;;7.85;;
75698;SDS011;64313;51.018;13.742;2023-12-04T04:31:23;16.60;;;7.28;;
75698;SDS011;64313;51.018;13.742;2023-12-04T04:33:48;16.70;;;6.97;;
75698;SDS011;64313;51.018;13.742;2023-12-04T04:36:14;16.10;;;7.20;;
75698;SDS011;64313;51.018;13.742;2023-12-04T04:38:39;18.27;;;7.40;;
75698;SDS011;64313;51.018;13.742;2023-12-04T04:41:05;19.65;;;8.00;;
75698;SDS011;64313;51.018;13.742;2023-12-04T04:43:31;16.70;;;7.93;;
75698;SDS011;64313;51.018;13.742;2023-12-04T04:45:56;18.55;;;7.55;;
75698;SDS011;64313;51.018;13.742;2023-12-04T04:48:21;17.77;;;7.90;;
75698;SDS011;64313;51.018;13.742;2023-12-04T04:50:46;17.27;;;7.60;;
75698;SDS011;64313;51.018;13.742;2023-12-04T04:53:12;16.45;;;7.57;;
75698;SDS011;64313;51.018;13.742;2023-12-04T04:55:37;17.92;;;7.55;;
75698;SDS011;64313;51.018;13.742;2023-12-04T04:58:02;20.10;;;7.68;;
75698;SDS011;64313;51.018;13.742;2023-12-04T05:00:28;19.30;;;7.28;;
75698;SDS011;64313;51.018;13.742;2023-12-04T05:02:53;22.10;;;8.05;;
75698;SDS011;64313;51.018;13.742;2023-12-04T05:05:18;18.77;;;7.85;;
75698;SDS011;64313;51.018;13.742;2023-12-04T05:07:44;18.90;;;7.97;;
75698;SDS011;64313;51.018;13.742;2023-12-04T05:10:09;27.38;;;12.95;;
75698;SDS011;64313;51.018;13.742;2023-12-04T05:12:34;29.83;;;15.18;;
75698;SDS011;64313;51.018;13.742;2023-12-04T05:15:00;38.90;;;19.50;;
75698;SDS011;64313;51.018;13.742;2023-12-04T05:17:25;26.10;;;12.95;;
75698;SDS011;64313;51.018;13.742;2023-12-04T05:19:50;29.70;;;12.90;;
75698;SDS011;64313;51.018;13.742;2023-12-04T05:22:15;21.65;;;9.75;;
75698;SDS011;64313;51.018;13.742;2023-12-04T05:24:41;19.15;;;8.55;;
75698;SDS011;64313;51.018;13.742;2023-12-04T05:27:06;20.42;;;7.72;;
75698;SDS011;64313;51.018;13.742;2023-12-04T05:29:31;18.48;;;8.13;;
75698;SDS011;64313;51.018;13.742;2023-12-04T05:31:57;21.00;;;9.10;;
75698;SDS011;64313;51.018;13.742;2023-12-04T05:34:22;19.77;;;8.45;;
75698;SDS011;64313;51.018;13.742;2023-12-04T05:36:48;19.70;;;8.95;;
75698;SDS011;64313;51.018;13.742;2023-12-04T05:39:13;19.85;;;7.68;;
75698;SDS011;64313;51.018;13.742;2023-12-04T05:41:39;20.58;;;8.75;;
75698;SDS011;64313;51.018;13.742;2023-12-04T05:44:04;20.60;;;8.13;;
75698;SDS011;64313;51.018;13.742;2023-12-04T05:46:29;18.27;;;8.32;;
75698;SDS011;64313;51.018;13.742;2023-12-04T05:48:54;19.17;;;8.02;;
75698;SDS011;64313;51.018;13.742;2023-12-04T05:51:20;20.17;;;8.43;;
75698;SDS011;64313;51.018;13.742;2023-12-04T05:53:45;18.60;;;7.53;;
75698;SDS011;64313;51.018;13.742;2023-12-04T05:56:11;20.20;;;8.65;;
75698;SDS011;64313;51.018;13.742;2023-12-04T05:58:36;19.67;;;8.25;;
75698;SDS011;64313;51.018;13.742;2023-12-04T06:01:01;17.88;;;7.20;;
75698;SDS011;64313;51.018;13.742;2023-12-04T06:03:27;18.38;;;7.70;;
75698;SDS011;64313;51.018;13.742;2023-12-04T06:05:53;17.23;;;7.40;;
75698;SDS011;64313;51.018;13.742;2023-12-04T06:08:18;17.95;;;6.97;;
75698;SDS011;64313;51.018;13.742;2023-12-04T06:10:43;15.30;;;6.75;;
75698;SDS011;64313;51.018;13.742;2023-12-04T06:13:08;18.25;;;7.78;;
75698;SDS011;64313;51.018;13.742;2023-12-04T06:15:34;17.83;;;7.25;;
75698;SDS011;64313;51.018;13.742;2023-12-04T06:17:59;16.80;;;7.68;;
75698;SDS011;64313;51.018;13.742;2023-12-04T06:20:24;16.08;;;6.25;;
75698;SDS011;64313;51.018;13.742;2023-12-04T06:22:50;17.58;;;7.07;;
75698;SDS011;64313;51.018;13.742;2023-12-04T06:25:15;15.55;;;7.20;;
75698;SDS011;64313;51.018;13.742;2023-12-04T06:27:41;17.35;;;7.60;;
75698;SDS011;64313;51.018;13.742;2023-12-04T06:30:06;17.55;;;6.78;;
75698;SDS011;64313;51.018;13.742;2023-12-04T06:32:32;19.27;;;7.35;;
75698;SDS011;64313;51.018;13.742;2023-12-04T06:34:58;15.95;;;6.47;;
75698;SDS011;64313;51.018;13.742;2023-12-04T06:37:24;17.80;;;7.75;;
75698;SDS011;64313;51.018;13.742;2023-12-04T06:39:49;16.73;;;6.93;;
75698;SDS011;64313;51.018;13.742;2023-12-04T06:42:17;13.40;;;5.72;;
75698;SDS011;64313;51.018;13.742;2023-12-04T06:44:43;15.07;;;6.50;;
75698;SDS011;64313;51.018;13.742;2023-12-04T06:47:08;15.50;;;7.18;;
75698;SDS011;64313;51.018;13.742;2023-12-04T06:49:34;15.02;;;6.57;;
75698;SDS011;64313;51.018;13.742;2023-12-04T06:51:59;20.10;;;8.00;;
75698;SDS011;64313;51.018;13.742;2023-12-04T06:54:26;18.48;;;7.55;;
75698;SDS011;64313;51.018;13.742;2023-12-04T06:56:51;16.90;;;7.10;;
75698;SDS011;64313;51.018;13.742;2023-12-04T06:59:17;15.32;;;6.78;;
75698;SDS011;64313;51.018;13.742;2023-12-04T07:01:43;11.80;;;5.35;;
75698;SDS011;64313;51.018;13.742;2023-12-04T07:04:08;16.98;;;7.03;;
75698;SDS011;64313;51.018;13.742;2023-12-04T07:09:03;16.88;;;6.88;;
75698;SDS011;64313;51.018;13.742;2023-12-04T07:11:29;16.00;;;6.55;;
75698;SDS011;64313;51.018;13.742;2023-12-04T07:13:55;16.92;;;6.82;;
75698;SDS011;64313;51.018;13.742;2023-12-04T07:16:20;18.40;;;7.03;;
75698;SDS011;64313;51.018;13.742;2023-12-04T07:18:46;16.05;;;7.15;;
75698;SDS011;64313;51.018;13.742;2023-12-04T07:21:11;17.67;;;6.85;;
75698;SDS011;64313;51.018;13.742;2023-12-04T07:23:36;16.77;;;6.72;;
75698;SDS011;64313;51.018;13.742;2023-12-04T07:26:02;14.13;;;6.45;;
75698;SDS011;64313;51.018;13.742;2023-12-04T07:28:28;15.70;;;6.95;;
75698;SDS011;64313;51.018;13.742;2023-12-04T07:30:54;14.05;;;6.07;;
75698;SDS011;64313;51.018;13.742;2023-12-04T07:33:20;16.65;;;6.93;;
75698;SDS011;64313;51.018;13.742;2023-12-04T07:35:45;14.60;;;6.43;;
75698;SDS011;64313;51.018;13.742;2023-12-04T07:38:11;13.52;;;6.25;;
75698;SDS011;64313;51.018;13.742;2023-12-04T07:40:37;16.52;;;6.13;;
75698;SDS011;64313;51.018;13.742;2023-12-04T07:43:02;15.13;;;6.43;;
75698;SDS011;64313;51.018;13.742;2023-12-04T07:45:28;16.02;;;6.20;;
75698;SDS011;64313;51.018;13.742;2023-12-04T07:47:53;12.90;;;6.03;;
75698;SDS011;64313;51.018;13.742;2023-12-04T07:50:18;15.73;;;6.15;;
75698;SDS011;64313;51.018;13.742;2023-12-04T07:52:44;16.25;;;6.47;;
75698;SDS011;64313;51.018;13.742;2023-12-04T07:55:09;14.23;;;6.35;;
75698;SDS011;64313;51.018;13.742;2023-12-04T07:57:34;14.85;;;6.30;;
75698;SDS011;64313;51.018;13.742;2023-12-04T08:00:00;14.88;;;6.00;;
75698;SDS011;64313;51.018;13.742;2023-12-04T08:02:25;15.10;;;6.20;;
75698;SDS011;64313;51.018;13.742;2023-12-04T08:04:50;16.23;;;6.68;;
75698;SDS011;64313;51.018;13.742;2023-12-04T08:07:16;13.70;;;5.85;;
75698;SDS011;64313;51.018;13.742;2023-12-04T08:09:41;14.05;;;6.40;;
75698;SDS011;64313;51.018;13.742;2023-12-04T08:12:06;14.82;;;6.13;;
75698;SDS011;64313;51.018;13.742;2023-12-04T08:14:32;15.27;;;6.70;;
75698;SDS011;64313;51.018;13.742;2023-12-04T08:16:57;14.82;;;6.35;;
75698;SDS011;64313;51.018;13.742;2023-12-04T08:19:23;13.70;;;6.07;;
75698;SDS011;64313;51.018;13.742;2023-12-04T08:21:48;14.05;;;6.50;;
75698;SDS011;64313;51.018;13.742;2023-12-04T08:24:14;17.38;;;6.75;;
75698;SDS011;64313;51.018;13.742;2023-12-04T08:26:41;13.98;;;5.88;;
75698;SDS011;64313;51.018;13.742;2023-12-04T08:29:06;14.32;;;5.72;;
75698;SDS011;64313;51.018;13.742;2023-12-04T08:31:32;13.18;;;5.47;;
75698;SDS011;64313;51.018;13.742;2023-12-04T08:33:57;13.70;;;6.00;;
75698;SDS011;64313;51.018;13.742;2023-12-04T08:36:23;11.75;;;4.97;;
75698;SDS011;64313;51.018;13.742;2023-12-04T08:38:48;12.60;;;5.53;;
75698;SDS011;64313;51.018;13.742;2023-12-04T08:41:13;13.57;;;5.70;;
75698;SDS011;64313;51.018;13.742;2023-12-04T08:43:39;12.07;;;5.20;;
75698;SDS011;64313;51.018;13.742;2023-12-04T08:46:04;12.18;;;5.38;;
75698;SDS011;64313;51.018;13.742;2023-12-04T08:48:29;11.73;;;5.05;;
75698;SDS011;64313;51.018;13.742;2023-12-04T08:50:55;9.82;;;4.43;;
75698;SDS011;64313;51.018;13.742;2023-12-04T08:53:20;10.07;;;4.93;;
75698;SDS011;64313;51.018;13.742;2023-12-04T08:55:46;10.82;;;5.05;;
75698;SDS011;64313;51.018;13.742;2023-12-04T08:58:12;11.38;;;4.90;;
75698;SDS011;64313;51.018;13.742;2023-12-04T09:00:37;12.10;;;4.70;;
75698;SDS011;64313;51.018;13.742;2023-12-04T09:03:07;14.35;;;5.25;;
75698;SDS011;64313;51.018;13.742;2023-12-04T09:05:33;10.15;;;5.05;;
75698;SDS011;64313;51.018;13.742;2023-12-04T09:07:58;8.48;;;4.05;;
75698;SDS011;64313;51.018;13.742;2023-12-04T09:10:23;11.85;;;5.10;;
75698;SDS011;64313;51.018;13.742;2023-12-04T09:12:49;10.45;;;4.85;;
75698;SDS011;64313;51.018;13.742;2023-12-04T09:15:14;11.10;;;4.97;;
75698;SDS011;64313;51.018;13.742;2023-12-04T09:17:39;11.90;;;5.07;;
75698;SDS011;64313;51.018;13.742;2023-12-04T09:20:05;11.50;;;4.80;;
75698;SDS011;64313;51.018;13.742;2023-12-04T09:22:31;14.02;;;5.28;;
75698;SDS011;64313;51.018;13.742;2023-12-04T09:24:56;11.40;;;4.90;;
75698;SDS011;64313;51.018;13.742;2023-12-04T09:27:22;10.55;;;4.72;;
75698;SDS011;64313;51.018;13.742;2023-12-04T09:29:48;10.40;;;4.40;;
75698;SDS011;64313;51.018;13.742;2023-12-04T09:32:13;10.27;;;5.22;;
75698;SDS011;64313;51.018;13.742;2023-12-04T09:34:38;11.23;;;4.53;;
75698;SDS011;64313;51.018;13.742;2023-12-04T09:37:04;12.82;;;5.32;;
75698;SDS011;64313;51.018;13.742;2023-12-04T09:39:29;10.30;;;4.35;;
75698;SDS011;64313;51.018;13.742;2023-12-04T09:41:55;10.63;;;4.55;;
75698;SDS011;64313;51.018;13.742;2023-12-04T09:44:21;9.50;;;4.05;;
75698;SDS011;64313;51.018;13.742;2023-12-04T09:46:49;10.98;;;4.57;;
75698;SDS011;64313;51.018;13.742;2023-12-04T09:49:16;12.30;;;4.80;;
75698;SDS011;64313;51.018;13.742;2023-12-04T09:51:43;9.57;;;4.38;;
75698;SDS011;64313;51.018;13.742;2023-12-04T09:54:09;13.25;;;5.68;;
75698;SDS011;64313;51.018;13.742;2023-12-04T09:56:34;14.57;;;5.45;;
75698;SDS011;64313;51.018;13.742;2023-12-04T09:59:00;12.68;;;5.80;;
75698;SDS011;64313;51.018;13.742;2023-12-04T10:01:27;14.18;;;5.82;;
75698;SDS011;64313;51.018;13.742;2023-12-04T10:03:53;12.30;;;5.25;;
75698;SDS011;64313;51.018;13.742;2023-12-04T10:06:22;13.77;;;5.93;;
75698;SDS011;64313;51.018;13.742;2023-12-04T10:08:51;11.73;;;5.40;;
75698;SDS011;64313;51.018;13.742;2023-12-04T10:11:16;12.25;;;4.95;;
75698;SDS011;64313;51.018;13.742;2023-12-04T10:13:42;10.02;;;5.15;;
75698;SDS011;64313;51.018;13.742;2023-12-04T10:16:07;12.35;;;5.05;;
75698;SDS011;64313;51.018;13.742;2023-12-04T10:18:33;12.35;;;5.55;;
75698;SDS011;64313;51.018;13.742;2023-12-04T10:20:59;13.70;;;5.80;;
75698;SDS011;64313;51.018;13.742;2023-12-04T10:23:38;11.27;;;5.07;;
75698;SDS011;64313;51.018;13.742;2023-12-04T10:26:05;12.80;;;5.43;;
75698;SDS011;64313;51.018;13.742;2023-12-04T10:28:32;13.13;;;6.20;;
75698;SDS011;64313;51.018;13.742;2023-12-04T10:30:58;12.50;;;6.07;;
75698;SDS011;64313;51.018;13.742;2023-12-04T10:33:24;12.27;;;5.80;;
75698;SDS011;64313;51.018;13.742;2023-12-04T10:35:50;12.52;;;5.07;;
75698;SDS011;64313;51.018;13.742;2023-12-04T10:38:16;11.70;;;5.28;;
75698;SDS011;64313;51.018;13.742;2023-12-04T10:40:43;13.20;;;5.82;;
75698;SDS011;64313;51.018;13.742;2023-12-04T10:45:37;12.60;;;5.65;;
75698;SDS011;64313;51.018;13.742;2023-12-04T10:48:03;13.77;;;5.90;;
75698;SDS011;64313;51.018;13.742;2023-12-04T10:50:31;12.07;;;5.72;;
75698;SDS011;64313;51.018;13.742;2023-12-04T10:52:59;13.50;;;5.57;;
75698;SDS011;64313;51.018;13.742;2023-12-04T10:55:26;13.10;;;5.53;;
75698;SDS011;64313;51.018;13.742;2023-12-04T10:57:51;13.27;;;5.75;;
75698;SDS011;64313;51.018;13.742;2023-12-04T11:00:19;11.70;;;5.43;;
75698;SDS011;64313;51.018;13.742;2023-12-04T11:02:46;11.68;;;5.30;;
75698;SDS011;64313;51.018;13.742;2023-12-04T11:05:14;13.75;;;5.50;;
75698;SDS011;64313;51.018;13.742;2023-12-04T11:07:50;14.00;;;5.80;;
75698;SDS011;64313;51.018;13.742;2023-12-04T11:10:19;13.75;;;5.88;;
75698;SDS011;64313;51.018;13.742;2023-12-04T11:12:47;11.80;;;5.60;;
75698;SDS011;64313;51.018;13.742;2023-12-04T11:15:16;15.43;;;6.57;;
75698;SDS011;64313;51.018;13.742;2023-12-04T11:17:47;12.60;;;5.57;;
75698;SDS011;64313;51.018;13.742;2023-12-04T11:20:19;13.93;;;5.85;;
75698;SDS011;64313;51.018;13.742;2023-12-04T11:22:49;10.32;;;4.93;;
75698;SDS011;64313;51.018;13.742;2023-12-04T11:25:15;12.75;;;6.10;;
75698;SDS011;64313;51.018;13.742;2023-12-04T11:27:41;12.18;;;5.65;;
75698;SDS011;64313;51.018;13.742;2023-12-04T11:30:08;12.52;;;5.72;;
75698;SDS011;64313;51.018;13.742;2023-12-04T11:32:44;11.13;;;5.28;;
75698;SDS011;64313;51.018;13.742;2023-12-04T11:35:16;10.30;;;4.38;;
75698;SDS011;64313;51.018;13.742;2023-12-04T11:37:43;14.40;;;6.18;;
75698;SDS011;64313;51.018;13.742;2023-12-04T11:40:12;11.52;;;5.05;;
75698;SDS011;64313;51.018;13.742;2023-12-04T11:42:41;13.30;;;5.65;;
75698;SDS011;64313;51.018;13.742;2023-12-04T11:45:06;14.93;;;5.60;;
75698;SDS011;64313;51.018;13.742;2023-12-04T11:47:51;10.50;;;5.03;;
75698;SDS011;64313;51.018;13.742;2023-12-04T11:50:20;14.52;;;5.90;;
75698;SDS011;64313;51.018;13.742;2023-12-04T11:52:47;13.05;;;5.25;;
75698;SDS011;64313;51.018;13.742;2023-12-04T11:59:03;11.93;;;5.20;;
75698;SDS011;64313;51.018;13.742;2023-12-04T12:01:33;12.18;;;4.72;;
75698;SDS011;64313;51.018;13.742;2023-12-04T12:03:59;11.90;;;5.03;;
75698;SDS011;64313;51.018;13.742;2023-12-04T12:06:26;14.23;;;5.10;;
75698;SDS011;64313;51.018;13.742;2023-12-04T12:11:17;11.20;;;4.60;;
75698;SDS011;64313;51.018;13.742;2023-12-04T12:13:43;11.70;;;4.85;;
75698;SDS011;64313;51.018;13.742;2023-12-04T12:16:09;10.23;;;4.47;;
75698;SDS011;64313;51.018;13.742;2023-12-04T12:18:36;12.95;;;5.63;;
75698;SDS011;64313;51.018;13.742;2023-12-04T12:21:01;11.93;;;5.22;;
75698;SDS011;64313;51.018;13.742;2023-12-04T12:23:26;11.02;;;5.20;;
75698;SDS011;64313;51.018;13.742;2023-12-04T12:25:52;12.70;;;5.22;;
75698;SDS011;64313;51.018;13.742;2023-12-04T12:28:17;10.95;;;3.88;;
75698;SDS011;64313;51.018;13.742;2023-12-04T12:30:43;11.68;;;4.78;;
75698;SDS011;64313;51.018;13.742;2023-12-04T12:34:02;12.73;;;5.38;;
75698;SDS011;64313;51.018;13.742;2023-12-04T12:36:28;11.63;;;5.45;;
75698;SDS011;64313;51.018;13.742;2023-12-04T12:38:54;10.73;;;5.25;;
75698;SDS011;64313;51.018;13.742;2023-12-04T12:41:19;11.35;;;4.88;;
75698;SDS011;64313;51.018;13.742;2023-12-04T12:43:45;13.88;;;5.82;;
75698;SDS011;64313;51.018;13.742;2023-12-04T12:46:10;11.77;;;5.85;;
75698;SDS011;64313;51.018;13.742;2023-12-04T12:48:36;12.48;;;5.40;;
75698;SDS011;64313;51.018;13.742;2023-12-04T12:51:02;11.90;;;5.70;;
75698;SDS011;64313;51.018;13.742;2023-12-04T12:53:27;13.95;;;5.85;;
75698;SDS011;64313;51.018;13.742;2023-12-04T12:55:53;13.25;;;5.40;;
75698;SDS011;64313;51.018;13.742;2023-12-04T12:58:18;13.50;;;5.80;;
75698;SDS011;64313;51.018;13.742;2023-12-04T13:00:45;11.70;;;5.57;;
75698;SDS011;64313;51.018;13.742;2023-12-04T13:03:15;11.27;;;5.88;;
75698;SDS011;64313;51.018;13.742;2023-12-04T13:05:41;13.60;;;6.10;;
75698;SDS011;64313;51.018;13.742;2023-12-04T13:08:06;11.82;;;5.47;;
75698;SDS011;64313;51.018;13.742;2023-12-04T13:10:32;12.65;;;5.47;;
75698;SDS011;64313;51.018;13.742;2023-12-04T13:12:57;13.88;;;5.65;;
75698;SDS011;64313;51.018;13.742;2023-12-04T13:15:24;13.13;;;5.60;;
75698;SDS011;64313;51.018;13.742;2023-12-04T13:17:50;11.45;;;5.70;;
75698;SDS011;64313;51.018;13.742;2023-12-04T13:20:15;13.00;;;5.80;;
75698;SDS011;64313;51.018;13.742;2023-12-04T13:22:41;14.13;;;5.53;;
75698;SDS011;64313;51.018;13.742;2023-12-04T13:25:07;14.65;;;6.32;;
75698;SDS011;64313;51.018;13.742;2023-12-04T13:27:35;13.43;;;6.10;;
75698;SDS011;64313;51.018;13.742;2023-12-04T13:30:03;13.60;;;6.47;;
75698;SDS011;64313;51.018;13.742;2023-12-04T13:32:30;14.93;;;6.88;;
75698;SDS011;64313;51.018;13.742;2023-12-04T13:34:58;12.93;;;6.40;;
75698;SDS011;64313;51.018;13.742;2023-12-04T13:37:23;12.98;;;5.93;;
75698;SDS011;64313;51.018;13.742;2023-12-04T13:39:50;11.63;;;5.75;;
75698;SDS011;64313;51.018;13.742;2023-12-04T13:42:22;12.68;;;6.15;;
75698;SDS011;64313;51.018;13.742;2023-12-04T13:45:06;13.93;;;6.10;;
75698;SDS011;64313;51.018;13.742;2023-12-04T13:47:34;15.32;;;5.57;;
75698;SDS011;64313;51.018;13.742;2023-12-04T13:50:00;15.50;;;7.30;;
75698;SDS011;64313;51.018;13.742;2023-12-04T13:52:25;12.40;;;5.68;;
75698;SDS011;64313;51.018;13.742;2023-12-04T13:54:54;11.30;;;4.78;;
75698;SDS011;64313;51.018;13.742;2023-12-04T13:57:20;15.82;;;6.90;;
75698;SDS011;64313;51.018;13.742;2023-12-04T14:00:01;12.20;;;6.00;;
75698;SDS011;64313;51.018;13.742;2023-12-04T14:02:29;10.75;;;5.18;;
75698;SDS011;64313;51.018;13.742;2023-12-04T14:04:54;11.63;;;5.70;;
75698;SDS011;64313;51.018;13.742;2023-12-04T14:07:20;12.15;;;5.07;;
75698;SDS011;64313;51.018;13.742;2023-12-04T14:09:45;11.32;;;5.78;;
75698;SDS011;64313;51.018;13.742;2023-12-04T14:12:11;11.65;;;5.97;;
75698;SDS011;64313;51.018;13.742;2023-12-04T14:14:36;14.02;;;6.22;;
75698;SDS011;64313;51.018;13.742;2023-12-04T14:17:04;13.38;;;6.28;;
75698;SDS011;64313;51.018;13.742;2023-12-04T14:19:32;13.73;;;6.20;;
75698;SDS011;64313;51.018;13.742;2023-12-04T14:21:57;12.85;;;6.40;;
75698;SDS011;64313;51.018;13.742;2023-12-04T14:24:22;11.10;;;5.55;;
75698;SDS011;64313;51.018;13.742;2023-12-04T14:26:48;13.35;;;6.43;;
75698;SDS011;64313;51.018;13.742;2023-12-04T14:31:39;12.13;;;5.40;;
75698;SDS011;64313;51.018;13.742;2023-12-04T14:34:05;13.77;;;6.18;;
75698;SDS011;64313;51.018;13.742;2023-12-04T14:36:30;13.48;;;6.78;;